KACB/ACB METAR and TAF weather

Enter ICAO airport designator
Station Type Date Time Source
KACB METAR 2021/09/23 22:55 UTC NOAA

KACB 232255Z AUTO 36003KT 10SM OVC011 10/09 A2982 RMK AO2 T01010089


Station Type Date Time Source
KACB Decoded METAR 2021/09/23 22:55 UTC NOAA

Bellaire, Antrim County Airport, MI, United States (KACB) 44-59-18N 085-11-54W
Sep 23, 2021 - 06:55 PM EDT / 2021.09.23 2255 UTC
Wind: from the N (360 degrees) at 3 MPH (3 KT):0
Visibility: 10 mile(s):0
Sky conditions: overcast
Temperature: 50.2 F (10.1 C)
Dew Point: 48.0 F (8.9 C)
Relative Humidity: 92%
Pressure (altimeter): 29.82 in. Hg (1009 hPa)
ob: KACB 232255Z AUTO 36003KT 10SM OVC011 10/09 A2982 RMK AO2 T01010089
cycle: 23

Station Type Date Time Source
KACB TAF UTC NOAA

Error!

Example: see airport list